createdAt,value
2023-01-29T00:02:14.866Z,47.00
2023-01-29T00:04:44.041Z,41.40
2023-01-29T00:07:10.951Z,45.40
2023-01-29T00:09:37.920Z,47.37
2023-01-29T00:12:05.119Z,44.23
2023-01-29T00:14:32.015Z,49.77
2023-01-29T00:16:58.888Z,50.57
2023-01-29T00:19:25.911Z,43.07
2023-01-29T00:21:53.039Z,46.80
2023-01-29T00:24:20.243Z,51.37
2023-01-29T00:26:50.378Z,50.90
2023-01-29T00:29:18.014Z,48.10
2023-01-29T00:31:45.545Z,47.63
2023-01-29T00:34:12.632Z,51.17
2023-01-29T00:36:44.337Z,46.67
2023-01-29T00:39:12.570Z,44.90
2023-01-29T00:41:58.157Z,50.23
2023-01-29T00:44:43.850Z,45.97
2023-01-29T00:47:29.393Z,45.50
2023-01-29T00:49:57.031Z,49.77
2023-01-29T00:52:24.431Z,49.97
2023-01-29T00:55:00.955Z,50.30
2023-01-29T00:57:30.046Z,57.45
2023-01-29T00:59:57.549Z,53.10
2023-01-29T01:02:44.264Z,51.57
2023-01-29T01:05:18.419Z,53.43
2023-01-29T01:07:51.467Z,57.73
2023-01-29T01:10:24.520Z,52.03
2023-01-29T01:12:54.031Z,51.63
2023-01-29T01:15:21.976Z,57.87
2023-01-29T01:17:52.820Z,59.97
2023-01-29T01:20:20.279Z,50.87
2023-01-29T01:22:47.287Z,54.30
2023-01-29T01:25:16.075Z,47.57
2023-01-29T01:27:42.883Z,54.33
2023-01-29T01:30:13.629Z,54.70
2023-01-29T01:32:43.892Z,57.87
2023-01-29T01:35:12.146Z,54.80
2023-01-29T01:37:39.352Z,50.80
2023-01-29T01:40:13.272Z,47.17
2023-01-29T01:42:42.822Z,49.00
2023-01-29T01:47:52.983Z,55.07
2023-01-29T01:50:26.937Z,51.77
2023-01-29T01:53:00.474Z,50.67
2023-01-29T01:55:31.135Z,54.87
2023-01-29T01:58:04.667Z,55.13
2023-01-29T02:00:32.718Z,66.67
2023-01-29T02:03:20.139Z,53.07
2023-01-29T02:06:08.013Z,52.30
2023-01-29T02:09:06.272Z,53.00
2023-01-29T02:11:36.573Z,55.07
2023-01-29T02:14:03.666Z,55.40
2023-01-29T02:16:31.920Z,52.37
2023-01-29T02:18:59.374Z,49.17
2023-01-29T02:22:01.911Z,51.63
2023-01-29T02:24:59.086Z,47.03
2023-01-29T02:27:49.242Z,54.80
2023-01-29T02:30:26.906Z,54.53
2023-01-29T02:32:59.279Z,52.63
2023-01-29T02:36:03.714Z,56.67
2023-01-29T02:38:41.179Z,50.70
2023-01-29T02:41:46.452Z,59.27
2023-01-29T02:44:19.514Z,53.57
2023-01-29T02:46:58.748Z,54.63
2023-01-29T02:49:38.518Z,60.50
2023-01-29T02:52:13.618Z,58.07
2023-01-29T02:54:44.381Z,59.47
2023-01-29T02:57:37.275Z,59.93
2023-01-29T03:00:18.850Z,50.83
2023-01-29T03:02:58.627Z,54.43
2023-01-29T03:05:33.777Z,51.70
2023-01-29T03:08:10.377Z,53.27
2023-01-29T03:10:42.257Z,55.17
2023-01-29T03:13:16.609Z,51.13
2023-01-29T03:15:51.375Z,54.77
2023-01-29T03:18:43.712Z,59.53
2023-01-29T03:21:36.981Z,66.90
2023-01-29T03:24:24.513Z,60.77
2023-01-29T03:27:11.892Z,59.03
2023-01-29T03:30:03.815Z,60.43
2023-01-29T03:32:49.740Z,57.53
2023-01-29T03:35:35.779Z,56.70
2023-01-29T03:38:10.361Z,60.95
2023-01-29T03:40:49.332Z,58.43
2023-01-29T03:43:30.125Z,59.50
2023-01-29T03:46:22.505Z,65.03
2023-01-29T03:48:55.398Z,65.60
2023-01-29T03:51:34.583Z,65.93
2023-01-29T03:54:01.561Z,61.40
2023-01-29T03:56:47.115Z,59.47
2023-01-29T03:59:23.052Z,58.80
2023-01-29T04:02:19.446Z,51.87
2023-01-29T04:04:52.066Z,53.53
2023-01-29T04:07:24.611Z,52.50
2023-01-29T04:10:13.085Z,47.40
2023-01-29T04:12:55.585Z,48.63
2023-01-29T04:15:26.137Z,46.27
2023-01-29T04:17:55.881Z,49.90
2023-01-29T04:20:38.776Z,43.97
2023-01-29T04:23:07.646Z,50.20
2023-01-29T04:25:44.948Z,44.07
2023-01-29T04:28:20.656Z,43.13
2023-01-29T04:31:08.622Z,45.57
2023-01-29T04:33:44.138Z,46.07
2023-01-29T04:36:30.373Z,44.17
2023-01-29T04:39:17.529Z,43.87
2023-01-29T04:41:55.696Z,45.67
2023-01-29T04:44:27.715Z,39.43
2023-01-29T04:47:31.807Z,49.30
2023-01-29T04:50:01.344Z,45.20
2023-01-29T04:53:06.925Z,38.63
2023-01-29T04:55:40.569Z,44.63
2023-01-29T04:58:32.151Z,50.93
2023-01-29T05:01:01.128Z,40.30
2023-01-29T05:03:30.260Z,35.40
2023-01-29T05:05:59.981Z,31.47
2023-01-29T05:08:29.537Z,32.10
2023-01-29T05:10:59.124Z,31.80
2023-01-29T05:13:27.323Z,32.80
2023-01-29T05:16:02.972Z,15.87
2023-01-29T05:18:31.174Z,18.53
2023-01-29T05:21:02.275Z,22.57
2023-01-29T05:23:29.140Z,13.53
2023-01-29T05:25:56.995Z,21.57
2023-01-29T05:28:24.149Z,22.37
2023-01-29T05:30:53.699Z,23.47
2023-01-29T05:33:25.160Z,34.57
2023-01-29T05:35:52.089Z,39.43
2023-01-29T05:38:19.948Z,42.63
2023-01-29T05:40:47.084Z,39.83
2023-01-29T05:43:19.876Z,44.40
2023-01-29T05:46:00.295Z,44.10
2023-01-29T05:48:29.190Z,44.33
2023-01-29T05:51:05.172Z,42.90
2023-01-29T05:53:32.956Z,49.07
2023-01-29T05:56:03.756Z,42.87
2023-01-29T05:58:32.216Z,51.53
2023-01-29T06:00:59.060Z,41.67
2023-01-29T06:03:26.591Z,42.20
2023-01-29T06:05:53.447Z,42.57
2023-01-29T06:08:20.527Z,46.33
2023-01-29T06:10:47.734Z,46.80
2023-01-29T06:13:14.852Z,46.23
2023-01-29T06:15:41.644Z,45.13
2023-01-29T06:18:09.025Z,44.93
2023-01-29T06:20:38.299Z,47.53
2023-01-29T06:23:05.542Z,47.80
2023-01-29T06:25:32.599Z,46.30
2023-01-29T06:27:59.763Z,42.87
2023-01-29T06:30:28.376Z,46.33
2023-01-29T06:32:59.185Z,55.47
2023-01-29T06:35:26.380Z,45.97
2023-01-29T06:37:53.307Z,45.20
2023-01-29T06:40:21.428Z,47.17
2023-01-29T06:42:48.212Z,47.50
2023-01-29T06:45:15.584Z,42.23
2023-01-29T06:47:42.577Z,43.03
2023-01-29T06:50:10.458Z,42.23
2023-01-29T06:52:37.322Z,45.43
2023-01-29T06:55:05.628Z,42.00
2023-01-29T06:57:32.522Z,42.57
2023-01-29T06:59:59.742Z,47.13
2023-01-29T07:02:26.891Z,40.47
2023-01-29T07:04:53.707Z,46.53
2023-01-29T07:07:20.642Z,46.37
2023-01-29T07:09:47.542Z,43.57
2023-01-29T07:14:41.077Z,44.30
2023-01-29T07:17:07.928Z,51.27
2023-01-29T07:19:34.743Z,45.90
2023-01-29T07:22:03.304Z,46.70
2023-01-29T07:24:30.267Z,44.13
2023-01-29T07:26:57.116Z,36.77
2023-01-29T07:29:24.074Z,45.10
2023-01-29T07:31:51.060Z,43.00
2023-01-29T07:34:20.405Z,45.43
2023-01-29T07:36:47.270Z,42.97
2023-01-29T07:39:14.304Z,44.27
2023-01-29T07:41:41.413Z,42.90
2023-01-29T07:44:16.224Z,42.43
2023-01-29T07:46:43.715Z,46.07
2023-01-29T07:49:11.123Z,42.50
2023-01-29T07:51:38.398Z,44.87
2023-01-29T07:54:07.527Z,47.17
2023-01-29T07:56:35.052Z,46.73
2023-01-29T07:59:03.747Z,43.50
2023-01-29T08:01:30.911Z,47.10
2023-01-29T08:03:57.805Z,40.50
2023-01-29T08:06:25.539Z,40.50
2023-01-29T08:08:53.154Z,42.57
2023-01-29T08:11:20.414Z,40.20
2023-01-29T08:16:14.940Z,41.47
2023-01-29T08:18:46.303Z,47.93
2023-01-29T08:21:14.153Z,40.73
2023-01-29T08:23:41.166Z,40.70
2023-01-29T08:26:08.046Z,38.67
2023-01-29T08:28:35.652Z,39.97
2023-01-29T08:31:02.604Z,44.40
2023-01-29T08:33:38.617Z,45.67
2023-01-29T08:36:07.534Z,38.33
2023-01-29T08:38:35.675Z,44.53
2023-01-29T08:41:02.589Z,48.67
2023-01-29T08:43:29.704Z,40.33
2023-01-29T08:45:59.107Z,42.57
2023-01-29T08:48:26.023Z,40.47
2023-01-29T08:50:58.025Z,36.10
2023-01-29T08:53:25.074Z,40.00
2023-01-29T08:55:52.872Z,37.73
2023-01-29T08:58:20.523Z,38.90
2023-01-29T09:00:47.490Z,42.90
2023-01-29T09:03:16.801Z,45.83
2023-01-29T09:05:43.770Z,43.67
2023-01-29T09:08:10.751Z,39.20
2023-01-29T09:10:37.629Z,40.63
2023-01-29T09:13:06.679Z,39.10
2023-01-29T09:15:33.589Z,38.87
2023-01-29T09:18:04.344Z,38.67
2023-01-29T09:20:31.264Z,35.53
2023-01-29T09:22:59.586Z,33.97
2023-01-29T09:25:26.665Z,37.47
2023-01-29T09:27:54.851Z,39.60
2023-01-29T09:30:22.519Z,36.87
2023-01-29T09:32:54.259Z,41.70
2023-01-29T09:35:24.028Z,38.00
2023-01-29T09:37:52.475Z,40.37
2023-01-29T09:40:32.065Z,41.43
2023-01-29T09:43:06.811Z,39.17
2023-01-29T09:45:35.461Z,40.80
2023-01-29T09:48:05.970Z,38.97
2023-01-29T09:50:41.189Z,36.90
2023-01-29T09:53:30.544Z,38.33
2023-01-29T09:56:14.815Z,32.83
2023-01-29T09:58:43.774Z,33.07
2023-01-29T10:01:36.531Z,39.83
2023-01-29T10:04:27.475Z,34.60
2023-01-29T10:07:00.700Z,31.93
2023-01-29T10:10:07.872Z,32.40
2023-01-29T10:12:53.650Z,29.57
2023-01-29T10:15:30.998Z,23.60
2023-01-29T10:18:07.056Z,17.20
2023-01-29T10:20:59.285Z,16.30
2023-01-29T10:23:35.050Z,29.17
2023-01-29T10:26:02.151Z,15.35
2023-01-29T10:28:34.302Z,30.23
2023-01-29T10:31:07.521Z,36.67
2023-01-29T10:33:49.203Z,34.60
2023-01-29T10:36:48.812Z,15.17
2023-01-29T10:39:18.781Z,36.47
2023-01-29T10:42:05.817Z,24.90
2023-01-29T10:44:32.801Z,26.45
2023-01-29T10:47:37.249Z,14.63
2023-01-29T10:50:32.861Z,20.50
2023-01-29T10:53:11.933Z,14.30
2023-01-29T10:55:57.556Z,18.50
2023-01-29T10:58:31.357Z,22.63
2023-01-29T11:00:59.312Z,21.30
2023-01-29T11:03:34.357Z,22.77
2023-01-29T11:06:25.389Z,21.53
2023-01-29T11:09:20.826Z,28.97
2023-01-29T11:11:55.502Z,24.87
2023-01-29T11:14:45.533Z,36.67
2023-01-29T11:17:17.119Z,36.73
2023-01-29T11:19:48.069Z,33.03
2023-01-29T11:22:20.826Z,25.07
2023-01-29T11:25:10.395Z,34.90
2023-01-29T11:27:44.470Z,43.53
2023-01-29T11:30:37.943Z,37.03
2023-01-29T11:33:26.238Z,49.47
2023-01-29T11:35:53.673Z,42.17
2023-01-29T11:38:28.828Z,38.63
2023-01-29T11:41:07.583Z,48.70
2023-01-29T11:43:34.597Z,38.40
2023-01-29T11:46:07.428Z,40.70
2023-01-29T11:48:48.476Z,36.97
2023-01-29T11:51:27.296Z,49.90
2023-01-29T11:54:04.786Z,43.30
2023-01-29T11:56:41.552Z,42.08
2023-01-29T11:59:29.206Z,38.17
2023-01-29T12:02:03.219Z,35.30
2023-01-29T12:04:31.059Z,51.25
2023-01-29T12:06:58.430Z,46.10
2023-01-29T12:09:28.377Z,47.28
2023-01-29T12:11:56.305Z,39.80
2023-01-29T12:14:34.384Z,42.38
2023-01-29T12:38:59.798Z,46.38
2023-01-29T12:41:36.486Z,43.03
2023-01-29T12:44:22.872Z,37.00
2023-01-29T12:46:56.400Z,41.47
2023-01-29T12:49:27.753Z,40.50
2023-01-29T12:52:07.916Z,31.50
2023-01-29T12:55:01.766Z,27.45
2023-01-29T12:58:01.440Z,33.13
2023-01-29T13:00:38.424Z,25.73
2023-01-29T13:07:57.387Z,26.27
2023-01-29T13:10:32.846Z,27.13
2023-01-29T13:13:19.734Z,29.67
2023-01-29T13:15:48.507Z,27.25
2023-01-29T13:18:44.928Z,25.45
2023-01-29T13:21:16.532Z,22.38
2023-01-29T13:23:47.585Z,22.38
2023-01-29T13:26:19.687Z,30.27
2023-01-29T13:28:48.350Z,23.23
2023-01-29T13:31:25.441Z,40.67
2023-01-29T13:34:04.597Z,28.17
2023-01-29T13:36:37.057Z,30.65
2023-01-29T13:39:07.787Z,37.22
2023-01-29T13:41:42.869Z,36.08
2023-01-29T13:44:28.375Z,40.25
2023-01-29T13:46:58.021Z,36.78
2023-01-29T13:49:35.836Z,35.33
2023-01-29T13:52:17.552Z,32.70
2023-01-29T13:54:59.043Z,39.25
2023-01-29T13:57:56.775Z,38.10
2023-01-29T14:00:31.543Z,36.65
2023-01-29T14:03:01.868Z,30.45
2023-01-29T14:05:31.652Z,34.95
2023-01-29T14:08:14.695Z,29.13
2023-01-29T14:10:44.799Z,26.10
2023-01-29T14:13:21.449Z,32.67
2023-01-29T14:15:57.473Z,32.28
2023-01-29T14:18:27.545Z,25.25
2023-01-29T14:20:59.550Z,34.10
2023-01-29T14:23:54.084Z,34.00
2023-01-29T14:26:46.783Z,34.03
2023-01-29T14:29:33.808Z,36.50
2023-01-29T14:32:20.058Z,29.67
2023-01-29T14:34:55.682Z,27.10
2023-01-29T14:37:33.649Z,25.98
2023-01-29T14:40:23.612Z,24.27
2023-01-29T14:43:07.794Z,23.13
2023-01-29T14:45:38.806Z,22.27
2023-01-29T14:48:11.892Z,24.90
2023-01-29T14:50:49.051Z,22.03
2023-01-29T14:53:31.868Z,24.20
2023-01-29T14:56:02.083Z,23.30
2023-01-29T14:58:43.773Z,28.10
2023-01-29T15:01:32.275Z,21.87
2023-01-29T15:04:31.197Z,24.40
2023-01-29T15:07:10.144Z,22.85
2023-01-29T15:10:24.627Z,24.63
2023-01-29T15:13:10.176Z,26.57
2023-01-29T15:15:49.435Z,27.40
2023-01-29T15:18:23.659Z,29.75
2023-01-29T15:21:02.615Z,29.47
2023-01-29T15:23:35.052Z,27.17
2023-01-29T15:26:04.843Z,27.90
2023-01-29T15:28:36.675Z,26.85
2023-01-29T15:31:13.533Z,25.70
2023-01-29T15:33:45.327Z,29.57
2023-01-29T15:36:21.085Z,32.45
2023-01-29T15:38:49.133Z,30.33
2023-01-29T15:41:21.125Z,30.87
2023-01-29T15:43:51.607Z,30.13
2023-01-29T15:46:21.988Z,30.53
2023-01-29T15:48:50.382Z,28.17
2023-01-29T15:51:25.433Z,27.07
2023-01-29T15:53:55.314Z,25.10
2023-01-29T15:56:37.462Z,32.47
2023-01-29T15:59:09.638Z,33.23
2023-01-29T16:01:37.273Z,33.83
2023-01-29T16:04:04.963Z,36.70
2023-01-29T16:06:38.728Z,41.57
2023-01-29T16:09:07.248Z,45.20
2023-01-29T16:11:37.774Z,39.43
2023-01-29T16:14:06.521Z,42.40
2023-01-29T16:16:33.751Z,50.83
2023-01-29T16:19:01.559Z,45.47
2023-01-29T16:21:36.282Z,49.50
2023-01-29T16:24:12.075Z,41.17
2023-01-29T16:26:45.569Z,49.77
2023-01-29T16:29:22.668Z,37.70
2023-01-29T16:31:53.404Z,36.55
2023-01-29T16:34:25.029Z,26.40
2023-01-29T16:36:54.521Z,29.03
2023-01-29T16:39:25.526Z,28.90
2023-01-29T16:42:13.229Z,33.40
2023-01-29T16:44:41.275Z,23.83
2023-01-29T16:47:26.706Z,31.20
2023-01-29T16:49:57.737Z,34.17
2023-01-29T16:52:28.191Z,29.07
2023-01-29T16:55:21.032Z,38.00
2023-01-29T16:57:55.756Z,29.30
2023-01-29T17:00:28.856Z,32.10
2023-01-29T17:03:07.036Z,27.80
2023-01-29T17:05:37.081Z,30.67
2023-01-29T17:08:06.178Z,31.03
2023-01-29T17:10:33.932Z,31.60
2023-01-29T17:13:07.205Z,34.13
2023-01-29T17:15:46.517Z,33.07
2023-01-29T17:18:24.984Z,30.90
2023-01-29T17:20:55.533Z,29.47
2023-01-29T17:23:23.581Z,30.23
2023-01-29T17:25:54.004Z,42.03
2023-01-29T17:28:22.145Z,30.47
2023-01-29T17:31:05.007Z,36.03
2023-01-29T17:33:33.978Z,30.93
2023-01-29T17:36:01.112Z,34.93
2023-01-29T17:38:28.328Z,43.77
2023-01-29T17:41:09.990Z,47.57
2023-01-29T17:43:37.297Z,56.47
2023-01-29T17:46:04.471Z,62.93
2023-01-29T17:48:32.383Z,58.00
2023-01-29T17:51:03.931Z,61.43
2023-01-29T17:53:45.258Z,59.23
2023-01-29T17:56:28.656Z,61.87
2023-01-29T17:58:55.974Z,65.60
2023-01-29T18:01:22.923Z,67.10
2023-01-29T18:03:50.821Z,66.73
2023-01-29T18:06:28.616Z,64.73
2023-01-29T18:08:58.944Z,62.13
2023-01-29T18:11:26.371Z,60.93
2023-01-29T18:13:53.458Z,68.53
2023-01-29T18:16:22.450Z,63.97
2023-01-29T18:18:51.154Z,65.00
2023-01-29T18:21:18.868Z,64.03
2023-01-29T18:23:46.155Z,64.23
2023-01-29T18:26:17.616Z,64.47
2023-01-29T18:28:45.377Z,68.57
2023-01-29T18:31:14.149Z,67.63
2023-01-29T18:33:41.679Z,71.13
2023-01-29T18:36:11.173Z,80.90
2023-01-29T18:38:39.038Z,77.30
2023-01-29T18:41:10.959Z,84.27
2023-01-29T18:43:42.569Z,76.33
2023-01-29T18:46:10.843Z,78.37
2023-01-29T18:48:37.840Z,67.50
2023-01-29T18:51:05.744Z,75.10
2023-01-29T18:53:33.630Z,76.27
2023-01-29T18:56:05.144Z,69.53
2023-01-29T18:58:36.239Z,68.47
2023-01-29T19:01:09.687Z,60.80
2023-01-29T19:03:39.621Z,65.87
2023-01-29T19:06:10.834Z,60.07
2023-01-29T19:08:38.555Z,63.17
2023-01-29T19:11:09.365Z,66.47
2023-01-29T19:13:40.715Z,58.80
2023-01-29T19:16:10.646Z,66.40
2023-01-29T19:18:39.040Z,58.97
2023-01-29T19:21:11.096Z,58.87
2023-01-29T19:23:38.301Z,62.90
2023-01-29T19:26:06.060Z,68.37
2023-01-29T19:28:33.884Z,69.13
2023-01-29T19:31:01.229Z,63.47
2023-01-29T19:33:28.627Z,64.10
2023-01-29T19:35:57.172Z,67.03
2023-01-29T19:38:24.343Z,61.77
2023-01-29T19:40:52.192Z,61.17
2023-01-29T19:43:19.437Z,62.17
2023-01-29T19:45:53.345Z,62.07
2023-01-29T19:48:22.021Z,66.10
2023-01-29T19:51:08.771Z,65.43
2023-01-29T19:53:38.006Z,71.80
2023-01-29T19:56:07.819Z,65.07
2023-01-29T19:58:35.610Z,78.47
2023-01-29T20:01:06.932Z,64.10
2023-01-29T20:03:34.567Z,72.10
2023-01-29T20:06:05.849Z,82.20
2023-01-29T20:08:33.908Z,71.03
2023-01-29T20:11:01.615Z,75.47
2023-01-29T20:13:29.598Z,76.07
2023-01-29T20:15:56.788Z,84.63
2023-01-29T20:18:24.467Z,79.17
2023-01-29T20:20:53.843Z,76.07
2023-01-29T20:23:36.636Z,77.57
2023-01-29T20:26:15.924Z,78.77
2023-01-29T20:28:45.517Z,74.13
2023-01-29T20:31:12.653Z,81.83
2023-01-29T20:33:40.836Z,96.53
2023-01-29T20:36:10.262Z,83.53
2023-01-29T20:38:38.203Z,65.03
2023-01-29T20:41:12.707Z,68.03
2023-01-29T20:43:40.710Z,55.80
2023-01-29T20:46:07.915Z,67.10
2023-01-29T20:48:38.205Z,65.37
2023-01-29T20:51:10.017Z,72.43
2023-01-29T20:53:37.380Z,68.40
2023-01-29T20:56:05.352Z,62.33
2023-01-29T20:58:32.948Z,54.50
2023-01-29T21:01:00.072Z,55.07
2023-01-29T21:03:27.971Z,52.57
2023-01-29T21:05:59.258Z,59.03
2023-01-29T21:08:31.245Z,63.30
2023-01-29T21:10:58.316Z,68.47
2023-01-29T21:13:25.594Z,73.37
2023-01-29T21:15:54.997Z,77.63
2023-01-29T21:18:22.333Z,74.03
2023-01-29T21:20:50.299Z,75.70
2023-01-29T21:23:18.174Z,68.80
2023-01-29T21:25:45.451Z,72.20
2023-01-29T21:28:15.790Z,74.93
2023-01-29T21:30:43.766Z,74.70
2023-01-29T21:33:11.151Z,65.27
2023-01-29T21:35:38.656Z,73.23
2023-01-29T21:38:06.437Z,64.47
2023-01-29T21:40:33.863Z,66.90
2023-01-29T21:43:15.008Z,59.87
2023-01-29T21:45:43.377Z,63.93
2023-01-29T21:48:11.766Z,61.47
2023-01-29T21:50:39.104Z,57.23
2023-01-29T21:53:06.322Z,57.47
2023-01-29T21:55:33.746Z,62.00
2023-01-29T21:58:00.756Z,56.73
2023-01-29T22:00:28.204Z,57.13
2023-01-29T22:02:55.332Z,56.97
2023-01-29T22:05:22.882Z,57.83
2023-01-29T22:07:50.644Z,61.73
2023-01-29T22:10:19.397Z,58.77
2023-01-29T22:12:48.075Z,62.83
2023-01-29T22:15:15.791Z,58.50
2023-01-29T22:17:43.223Z,62.00
2023-01-29T22:20:14.914Z,67.70
2023-01-29T22:22:42.660Z,68.37
2023-01-29T22:25:11.925Z,61.33
2023-01-29T22:27:39.480Z,62.63
2023-01-29T22:30:07.503Z,67.00
2023-01-29T22:32:35.050Z,59.13
2023-01-29T22:35:05.537Z,54.20
2023-01-29T22:37:32.917Z,60.60
2023-01-29T22:40:00.099Z,58.43
2023-01-29T22:42:28.198Z,60.30
2023-01-29T22:44:55.185Z,66.30
2023-01-29T22:47:22.285Z,58.63
2023-01-29T22:49:51.463Z,52.00
2023-01-29T22:52:22.519Z,62.37
2023-01-29T22:54:51.537Z,58.53
2023-01-29T22:57:19.495Z,61.60
2023-01-29T22:59:46.562Z,60.60
2023-01-29T23:02:13.623Z,59.87
2023-01-29T23:04:40.674Z,55.27
2023-01-29T23:07:07.723Z,57.53
2023-01-29T23:09:34.705Z,62.90
2023-01-29T23:12:04.060Z,59.80
2023-01-29T23:14:31.234Z,60.73
2023-01-29T23:16:58.180Z,61.27
2023-01-29T23:19:25.272Z,55.30
2023-01-29T23:21:52.253Z,58.97
2023-01-29T23:24:19.302Z,62.50
2023-01-29T23:27:04.725Z,60.63
2023-01-29T23:29:31.864Z,59.30
2023-01-29T23:31:58.857Z,58.33
2023-01-29T23:34:25.954Z,56.23
2023-01-29T23:36:52.966Z,58.63
2023-01-29T23:39:20.728Z,56.67
2023-01-29T23:41:47.833Z,56.97
2023-01-29T23:44:17.277Z,63.00
2023-01-29T23:46:44.599Z,66.73
2023-01-29T23:49:12.355Z,63.70
2023-01-29T23:51:39.800Z,55.20
2023-01-29T23:54:09.311Z,61.93
2023-01-29T23:56:36.734Z,60.60
2023-01-29T23:59:03.786Z,54.67
